sensor_id;sensor_type;location;lat;lon;timestamp;temperature;humidity
3756;DHT22;1893;52.526;13.360;2023-04-03T00:00:29;1.60;99.90
3756;DHT22;1893;52.526;13.360;2023-04-03T00:02:54;1.50;99.90
3756;DHT22;1893;52.526;13.360;2023-04-03T00:05:20;1.50;99.90
3756;DHT22;1893;52.526;13.360;2023-04-03T00:07:46;1.50;99.90
3756;DHT22;1893;52.526;13.360;2023-04-03T00:10:12;1.50;99.90
3756;DHT22;1893;52.526;13.360;2023-04-03T00:12:39;1.50;99.90
3756;DHT22;1893;52.526;13.360;2023-04-03T00:15:05;1.50;99.90
3756;DHT22;1893;52.526;13.360;2023-04-03T00:17:31;1.50;99.90
3756;DHT22;1893;52.526;13.360;2023-04-03T00:19:56;1.50;99.90
3756;DHT22;1893;52.526;13.360;2023-04-03T00:22:22;1.50;99.90
3756;DHT22;1893;52.526;13.360;2023-04-03T00:24:47;1.50;99.90
3756;DHT22;1893;52.526;13.360;2023-04-03T00:27:13;1.50;99.90
3756;DHT22;1893;52.526;13.360;2023-04-03T00:29:38;1.40;99.90
3756;DHT22;1893;52.526;13.360;2023-04-03T00:32:04;1.40;99.90
3756;DHT22;1893;52.526;13.360;2023-04-03T00:34:30;1.40;99.90
3756;DHT22;1893;52.526;13.360;2023-04-03T00:36:55;1.40;99.90
3756;DHT22;1893;52.526;13.360;2023-04-03T00:39:22;1.40;99.90
3756;DHT22;1893;52.526;13.360;2023-04-03T00:41:47;1.40;99.90
3756;DHT22;1893;52.526;13.360;2023-04-03T00:47:11;1.30;99.90
3756;DHT22;1893;52.526;13.360;2023-04-03T00:49:38;1.30;99.90
3756;DHT22;1893;52.526;13.360;2023-04-03T00:52:12;1.30;99.90
3756;DHT22;1893;52.526;13.360;2023-04-03T00:54:40;1.30;99.90
3756;DHT22;1893;52.526;13.360;2023-04-03T00:57:07;1.30;99.90
3756;DHT22;1893;52.526;13.360;2023-04-03T00:59:38;1.30;99.90
3756;DHT22;1893;52.526;13.360;2023-04-03T01:02:05;1.30;99.90
3756;DHT22;1893;52.526;13.360;2023-04-03T01:04:34;1.10;99.90
3756;DHT22;1893;52.526;13.360;2023-04-03T01:07:04;1.10;99.90
3756;DHT22;1893;52.526;13.360;2023-04-03T01:09:31;1.20;99.90
3756;DHT22;1893;52.526;13.360;2023-04-03T01:12:20;1.30;99.90
3756;DHT22;1893;52.526;13.360;2023-04-03T01:14:49;1.20;99.90
3756;DHT22;1893;52.526;13.360;2023-04-03T01:25:52;1.10;99.90
3756;DHT22;1893;52.526;13.360;2023-04-03T01:28:36;1.10;99.90
3756;DHT22;1893;52.526;13.360;2023-04-03T01:31:24;1.00;99.90
3756;DHT22;1893;52.526;13.360;2023-04-03T01:33:51;1.00;99.90
3756;DHT22;1893;52.526;13.360;2023-04-03T01:36:20;1.00;99.90
3756;DHT22;1893;52.526;13.360;2023-04-03T01:38:47;1.00;99.90
3756;DHT22;1893;52.526;13.360;2023-04-03T01:41:13;1.00;99.90
3756;DHT22;1893;52.526;13.360;2023-04-03T01:43:38;1.00;99.90
3756;DHT22;1893;52.526;13.360;2023-04-03T01:46:04;0.90;99.90
3756;DHT22;1893;52.526;13.360;2023-04-03T01:48:30;1.00;99.90
3756;DHT22;1893;52.526;13.360;2023-04-03T01:50:56;0.90;99.90
3756;DHT22;1893;52.526;13.360;2023-04-03T01:53:21;0.90;99.90
3756;DHT22;1893;52.526;13.360;2023-04-03T01:55:47;0.90;99.90
3756;DHT22;1893;52.526;13.360;2023-04-03T01:58:13;0.90;99.90
3756;DHT22;1893;52.526;13.360;2023-04-03T02:00:39;1.00;99.90
3756;DHT22;1893;52.526;13.360;2023-04-03T02:03:04;1.00;99.90
3756;DHT22;1893;52.526;13.360;2023-04-03T02:05:30;0.90;99.90
3756;DHT22;1893;52.526;13.360;2023-04-03T02:07:56;0.80;99.90
3756;DHT22;1893;52.526;13.360;2023-04-03T02:10:21;0.70;99.90
3756;DHT22;1893;52.526;13.360;2023-04-03T02:12:47;0.70;99.90
3756;DHT22;1893;52.526;13.360;2023-04-03T02:15:13;0.70;99.90
3756;DHT22;1893;52.526;13.360;2023-04-03T02:17:38;0.60;99.90
3756;DHT22;1893;52.526;13.360;2023-04-03T02:20:05;0.60;99.90
3756;DHT22;1893;52.526;13.360;2023-04-03T02:22:30;0.60;99.90
3756;DHT22;1893;52.526;13.360;2023-04-03T02:24:56;0.60;99.90
3756;DHT22;1893;52.526;13.360;2023-04-03T02:27:22;0.50;99.90
3756;DHT22;1893;52.526;13.360;2023-04-03T02:29:47;0.60;99.90
3756;DHT22;1893;52.526;13.360;2023-04-03T02:32:13;0.60;99.90
3756;DHT22;1893;52.526;13.360;2023-04-03T02:34:38;0.60;99.90
3756;DHT22;1893;52.526;13.360;2023-04-03T02:37:04;0.70;99.90
3756;DHT22;1893;52.526;13.360;2023-04-03T02:39:30;0.60;99.90
3756;DHT22;1893;52.526;13.360;2023-04-03T02:41:56;0.50;99.90
3756;DHT22;1893;52.526;13.360;2023-04-03T02:44:21;0.50;99.90
3756;DHT22;1893;52.526;13.360;2023-04-03T02:46:49;0.50;99.90
3756;DHT22;1893;52.526;13.360;2023-04-03T02:49:14;0.70;99.90
3756;DHT22;1893;52.526;13.360;2023-04-03T02:51:40;0.70;99.90
3756;DHT22;1893;52.526;13.360;2023-04-03T02:54:06;0.60;99.90
3756;DHT22;1893;52.526;13.360;2023-04-03T02:56:32;0.50;99.90
3756;DHT22;1893;52.526;13.360;2023-04-03T02:58:58;0.40;99.90
3756;DHT22;1893;52.526;13.360;2023-04-03T03:01:24;0.50;99.90
3756;DHT22;1893;52.526;13.360;2023-04-03T03:03:50;0.50;99.90
3756;DHT22;1893;52.526;13.360;2023-04-03T03:06:16;0.50;99.90
3756;DHT22;1893;52.526;13.360;2023-04-03T03:08:42;0.50;99.90
3756;DHT22;1893;52.526;13.360;2023-04-03T03:11:08;0.60;99.90
3756;DHT22;1893;52.526;13.360;2023-04-03T03:13:35;0.40;99.90
3756;DHT22;1893;52.526;13.360;2023-04-03T03:16:01;0.30;99.90
3756;DHT22;1893;52.526;13.360;2023-04-03T03:18:27;0.30;99.90
3756;DHT22;1893;52.526;13.360;2023-04-03T03:20:54;0.40;99.90
3756;DHT22;1893;52.526;13.360;2023-04-03T03:23:21;0.40;99.90
3756;DHT22;1893;52.526;13.360;2023-04-03T03:25:47;0.50;99.90
3756;DHT22;1893;52.526;13.360;2023-04-03T03:28:13;0.40;99.90
3756;DHT22;1893;52.526;13.360;2023-04-03T03:30:39;0.40;99.90
3756;DHT22;1893;52.526;13.360;2023-04-03T03:33:04;0.30;99.90
3756;DHT22;1893;52.526;13.360;2023-04-03T03:35:30;0.30;99.90
3756;DHT22;1893;52.526;13.360;2023-04-03T03:37:56;0.30;99.90
3756;DHT22;1893;52.526;13.360;2023-04-03T03:40:22;0.20;99.90
3756;DHT22;1893;52.526;13.360;2023-04-03T03:42:47;0.20;99.90
3756;DHT22;1893;52.526;13.360;2023-04-03T03:45:13;0.20;99.90
3756;DHT22;1893;52.526;13.360;2023-04-03T03:47:39;0.20;99.90
3756;DHT22;1893;52.526;13.360;2023-04-03T03:50:05;0.20;99.90
3756;DHT22;1893;52.526;13.360;2023-04-03T03:52:31;0.20;99.90
3756;DHT22;1893;52.526;13.360;2023-04-03T03:54:57;0.20;99.90
3756;DHT22;1893;52.526;13.360;2023-04-03T03:57:22;0.20;99.90
3756;DHT22;1893;52.526;13.360;2023-04-03T03:59:48;0.10;99.90
3756;DHT22;1893;52.526;13.360;2023-04-03T04:02:14;0.20;99.90
3756;DHT22;1893;52.526;13.360;2023-04-03T04:04:40;0.20;99.90
3756;DHT22;1893;52.526;13.360;2023-04-03T04:07:05;0.20;99.90
3756;DHT22;1893;52.526;13.360;2023-04-03T04:09:31;0.10;99.90
3756;DHT22;1893;52.526;13.360;2023-04-03T04:11:57;0.00;99.90
3756;DHT22;1893;52.526;13.360;2023-04-03T04:14:23;0.00;99.90
3756;DHT22;1893;52.526;13.360;2023-04-03T04:16:49;0.10;99.90
3756;DHT22;1893;52.526;13.360;2023-04-03T04:19:14;0.10;99.90
3756;DHT22;1893;52.526;13.360;2023-04-03T04:21:40;0.00;99.90
3756;DHT22;1893;52.526;13.360;2023-04-03T04:24:07;0.20;99.90
3756;DHT22;1893;52.526;13.360;2023-04-03T04:26:33;0.20;99.90
3756;DHT22;1893;52.526;13.360;2023-04-03T04:28:58;0.20;99.90
3756;DHT22;1893;52.526;13.360;2023-04-03T04:31:24;0.10;99.90
3756;DHT22;1893;52.526;13.360;2023-04-03T04:33:50;0.10;99.90
3756;DHT22;1893;52.526;13.360;2023-04-03T04:36:15;0.10;99.90
3756;DHT22;1893;52.526;13.360;2023-04-03T04:38:41;0.00;99.90
3756;DHT22;1893;52.526;13.360;2023-04-03T04:41:07;0.00;99.90
3756;DHT22;1893;52.526;13.360;2023-04-03T04:43:33;0.10;99.90
3756;DHT22;1893;52.526;13.360;2023-04-03T04:48:28;0.10;99.90
3756;DHT22;1893;52.526;13.360;2023-04-03T04:50:53;0.10;99.90
3756;DHT22;1893;52.526;13.360;2023-04-03T04:53:19;0.10;99.90
3756;DHT22;1893;52.526;13.360;2023-04-03T04:55:45;0.10;99.90
3756;DHT22;1893;52.526;13.360;2023-04-03T04:58:10;0.10;99.90
3756;DHT22;1893;52.526;13.360;2023-04-03T05:00:36;0.10;99.90
3756;DHT22;1893;52.526;13.360;2023-04-03T05:03:01;0.10;99.90
3756;DHT22;1893;52.526;13.360;2023-04-03T05:05:28;0.10;99.90
3756;DHT22;1893;52.526;13.360;2023-04-03T05:07:53;0.10;99.90
3756;DHT22;1893;52.526;13.360;2023-04-03T05:10:19;0.10;99.90
3756;DHT22;1893;52.526;13.360;2023-04-03T05:12:44;0.20;99.90
3756;DHT22;1893;52.526;13.360;2023-04-03T05:15:10;0.30;99.90
3756;DHT22;1893;52.526;13.360;2023-04-03T05:17:36;0.30;99.90
3756;DHT22;1893;52.526;13.360;2023-04-03T05:20:02;0.30;99.90
3756;DHT22;1893;52.526;13.360;2023-04-03T05:22:29;0.30;99.90
3756;DHT22;1893;52.526;13.360;2023-04-03T05:24:54;0.40;99.90
3756;DHT22;1893;52.526;13.360;2023-04-03T05:27:20;0.30;99.90
3756;DHT22;1893;52.526;13.360;2023-04-03T05:29:46;0.30;99.90
3756;DHT22;1893;52.526;13.360;2023-04-03T05:32:12;0.40;99.90
3756;DHT22;1893;52.526;13.360;2023-04-03T05:34:37;0.40;99.90
3756;DHT22;1893;52.526;13.360;2023-04-03T05:37:03;0.40;99.90
3756;DHT22;1893;52.526;13.360;2023-04-03T05:39:30;0.60;99.90
3756;DHT22;1893;52.526;13.360;2023-04-03T05:41:57;0.80;99.90
3756;DHT22;1893;52.526;13.360;2023-04-03T05:44:22;0.80;99.90
3756;DHT22;1893;52.526;13.360;2023-04-03T05:46:48;0.90;99.90
3756;DHT22;1893;52.526;13.360;2023-04-03T05:49:14;1.00;99.90
3756;DHT22;1893;52.526;13.360;2023-04-03T05:51:40;1.00;99.90
3756;DHT22;1893;52.526;13.360;2023-04-03T05:54:27;1.10;99.90
3756;DHT22;1893;52.526;13.360;2023-04-03T05:56:53;1.10;99.90
3756;DHT22;1893;52.526;13.360;2023-04-03T05:59:20;1.10;99.90
3756;DHT22;1893;52.526;13.360;2023-04-03T06:01:46;1.20;99.90
3756;DHT22;1893;52.526;13.360;2023-04-03T06:04:12;1.10;99.90
3756;DHT22;1893;52.526;13.360;2023-04-03T06:06:52;1.20;99.90
3756;DHT22;1893;52.526;13.360;2023-04-03T06:09:20;1.30;99.90
3756;DHT22;1893;52.526;13.360;2023-04-03T06:11:47;1.40;99.90
3756;DHT22;1893;52.526;13.360;2023-04-03T06:14:13;1.40;99.90
3756;DHT22;1893;52.526;13.360;2023-04-03T06:16:38;1.50;99.90
3756;DHT22;1893;52.526;13.360;2023-04-03T06:19:05;1.70;99.90
3756;DHT22;1893;52.526;13.360;2023-04-03T06:21:31;1.60;99.90
3756;DHT22;1893;52.526;13.360;2023-04-03T06:23:57;1.80;99.90
3756;DHT22;1893;52.526;13.360;2023-04-03T06:26:22;1.80;99.90
3756;DHT22;1893;52.526;13.360;2023-04-03T06:28:48;2.00;99.90
3756;DHT22;1893;52.526;13.360;2023-04-03T06:31:14;2.00;99.90
3756;DHT22;1893;52.526;13.360;2023-04-03T06:33:39;2.10;99.90
3756;DHT22;1893;52.526;13.360;2023-04-03T06:36:06;2.10;99.90
3756;DHT22;1893;52.526;13.360;2023-04-03T06:38:35;2.30;99.90
3756;DHT22;1893;52.526;13.360;2023-04-03T06:41:01;2.50;99.90
3756;DHT22;1893;52.526;13.360;2023-04-03T06:43:26;2.50;99.90
3756;DHT22;1893;52.526;13.360;2023-04-03T06:45:52;2.70;99.90
3756;DHT22;1893;52.526;13.360;2023-04-03T06:48:18;2.80;99.90
3756;DHT22;1893;52.526;13.360;2023-04-03T06:50:44;2.90;99.90
3756;DHT22;1893;52.526;13.360;2023-04-03T06:53:10;3.20;99.90
3756;DHT22;1893;52.526;13.360;2023-04-03T06:55:37;3.90;99.90
3756;DHT22;1893;52.526;13.360;2023-04-03T06:58:04;4.50;99.90
3756;DHT22;1893;52.526;13.360;2023-04-03T07:00:30;4.80;99.90
3756;DHT22;1893;52.526;13.360;2023-04-03T07:02:56;5.20;99.90
3756;DHT22;1893;52.526;13.360;2023-04-03T07:05:23;5.50;99.90
3756;DHT22;1893;52.526;13.360;2023-04-03T07:07:49;5.50;99.90
3756;DHT22;1893;52.526;13.360;2023-04-03T07:10:15;5.50;99.90
3756;DHT22;1893;52.526;13.360;2023-04-03T07:12:44;5.30;99.90
3756;DHT22;1893;52.526;13.360;2023-04-03T07:15:10;5.80;99.90
3756;DHT22;1893;52.526;13.360;2023-04-03T07:17:36;5.40;99.90
3756;DHT22;1893;52.526;13.360;2023-04-03T07:20:02;5.60;99.90
3756;DHT22;1893;52.526;13.360;2023-04-03T07:22:29;5.80;99.90
3756;DHT22;1893;52.526;13.360;2023-04-03T07:24:55;5.40;99.90
3756;DHT22;1893;52.526;13.360;2023-04-03T07:27:21;5.40;99.90
3756;DHT22;1893;52.526;13.360;2023-04-03T07:29:46;5.40;99.90
3756;DHT22;1893;52.526;13.360;2023-04-03T07:32:14;5.30;99.90
3756;DHT22;1893;52.526;13.360;2023-04-03T07:34:40;5.30;99.90
3756;DHT22;1893;52.526;13.360;2023-04-03T07:37:06;5.00;99.90
3756;DHT22;1893;52.526;13.360;2023-04-03T07:39:33;4.90;99.90
3756;DHT22;1893;52.526;13.360;2023-04-03T07:41:58;5.00;99.90
3756;DHT22;1893;52.526;13.360;2023-04-03T07:44:24;5.30;99.90
3756;DHT22;1893;52.526;13.360;2023-04-03T07:46:50;5.80;99.90
3756;DHT22;1893;52.526;13.360;2023-04-03T07:49:16;6.30;99.90
3756;DHT22;1893;52.526;13.360;2023-04-03T07:51:44;6.50;99.90
3756;DHT22;1893;52.526;13.360;2023-04-03T07:54:09;6.70;99.90
3756;DHT22;1893;52.526;13.360;2023-04-03T07:56:35;7.30;99.90
3756;DHT22;1893;52.526;13.360;2023-04-03T07:59:00;7.10;99.90
3756;DHT22;1893;52.526;13.360;2023-04-03T08:01:26;6.10;99.90
3756;DHT22;1893;52.526;13.360;2023-04-03T08:03:52;5.40;99.90
3756;DHT22;1893;52.526;13.360;2023-04-03T08:06:17;5.00;99.90
3756;DHT22;1893;52.526;13.360;2023-04-03T08:08:43;4.60;99.90
3756;DHT22;1893;52.526;13.360;2023-04-03T08:11:10;4.30;99.90
3756;DHT22;1893;52.526;13.360;2023-04-03T08:13:36;4.30;99.90
3756;DHT22;1893;52.526;13.360;2023-04-03T08:16:09;4.40;99.90
3756;DHT22;1893;52.526;13.360;2023-04-03T08:18:35;4.90;99.90
3756;DHT22;1893;52.526;13.360;2023-04-03T08:21:00;5.20;99.90
3756;DHT22;1893;52.526;13.360;2023-04-03T08:23:26;5.20;99.90
3756;DHT22;1893;52.526;13.360;2023-04-03T08:25:52;5.30;99.90
3756;DHT22;1893;52.526;13.360;2023-04-03T08:28:17;5.20;99.90
3756;DHT22;1893;52.526;13.360;2023-04-03T08:30:44;5.00;99.90
3756;DHT22;1893;52.526;13.360;2023-04-03T08:33:10;5.10;99.90
3756;DHT22;1893;52.526;13.360;2023-04-03T08:35:40;5.00;99.90
3756;DHT22;1893;52.526;13.360;2023-04-03T08:38:07;4.90;99.90
3756;DHT22;1893;52.526;13.360;2023-04-03T08:40:33;5.00;99.90
3756;DHT22;1893;52.526;13.360;2023-04-03T08:43:20;5.30;99.90
3756;DHT22;1893;52.526;13.360;2023-04-03T08:45:52;5.30;99.90
3756;DHT22;1893;52.526;13.360;2023-04-03T08:48:33;5.80;99.90
3756;DHT22;1893;52.526;13.360;2023-04-03T08:51:03;6.80;99.90
3756;DHT22;1893;52.526;13.360;2023-04-03T08:53:34;6.90;99.90
3756;DHT22;1893;52.526;13.360;2023-04-03T08:56:20;6.80;99.90
3756;DHT22;1893;52.526;13.360;2023-04-03T08:58:59;6.30;99.90
3756;DHT22;1893;52.526;13.360;2023-04-03T09:01:39;6.90;99.90
3756;DHT22;1893;52.526;13.360;2023-04-03T09:04:14;7.10;99.90
3756;DHT22;1893;52.526;13.360;2023-04-03T09:06:43;7.80;99.90
3756;DHT22;1893;52.526;13.360;2023-04-03T09:09:36;7.40;99.90
3756;DHT22;1893;52.526;13.360;2023-04-03T09:12:15;7.30;99.90
3756;DHT22;1893;52.526;13.360;2023-04-03T09:14:50;7.60;99.90
3756;DHT22;1893;52.526;13.360;2023-04-03T09:17:31;6.90;99.90
3756;DHT22;1893;52.526;13.360;2023-04-03T09:20:16;6.60;99.90
3756;DHT22;1893;52.526;13.360;2023-04-03T09:22:43;5.80;99.90
3756;DHT22;1893;52.526;13.360;2023-04-03T09:27:44;5.50;99.90
3756;DHT22;1893;52.526;13.360;2023-04-03T09:30:16;5.50;99.90
3756;DHT22;1893;52.526;13.360;2023-04-03T09:32:45;5.40;99.90
3756;DHT22;1893;52.526;13.360;2023-04-03T09:37:42;5.50;99.90
3756;DHT22;1893;52.526;13.360;2023-04-03T09:40:35;5.30;99.90
3756;DHT22;1893;52.526;13.360;2023-04-03T09:43:34;5.50;99.90
3756;DHT22;1893;52.526;13.360;2023-04-03T09:46:18;5.60;99.90
3756;DHT22;1893;52.526;13.360;2023-04-03T09:48:51;5.40;99.90
3756;DHT22;1893;52.526;13.360;2023-04-03T09:51:25;5.20;99.90
3756;DHT22;1893;52.526;13.360;2023-04-03T09:53:52;5.50;99.90
3756;DHT22;1893;52.526;13.360;2023-04-03T09:56:29;6.80;99.90
3756;DHT22;1893;52.526;13.360;2023-04-03T10:04:17;8.90;99.90
3756;DHT22;1893;52.526;13.360;2023-04-03T10:06:46;8.40;99.90
3756;DHT22;1893;52.526;13.360;2023-04-03T10:14:36;8.80;99.90
3756;DHT22;1893;52.526;13.360;2023-04-03T10:22:21;8.10;97.70
3756;DHT22;1893;52.526;13.360;2023-04-03T10:36:17;10.20;93.70
3756;DHT22;1893;52.526;13.360;2023-04-03T10:41:44;8.80;91.90
3756;DHT22;1893;52.526;13.360;2023-04-03T10:57:03;7.00;93.40
3756;DHT22;1893;52.526;13.360;2023-04-03T10:59:37;7.50;93.10
3756;DHT22;1893;52.526;13.360;2023-04-03T11:02:14;8.10;94.20
3756;DHT22;1893;52.526;13.360;2023-04-03T11:04:45;7.40;93.20
3756;DHT22;1893;52.526;13.360;2023-04-03T11:07:21;7.30;93.70
3756;DHT22;1893;52.526;13.360;2023-04-03T11:09:50;7.80;93.80
3756;DHT22;1893;52.526;13.360;2023-04-03T11:12:33;7.60;93.90
3756;DHT22;1893;52.526;13.360;2023-04-03T11:15:02;7.40;94.40
3756;DHT22;1893;52.526;13.360;2023-04-03T11:17:35;7.30;95.20
3756;DHT22;1893;52.526;13.360;2023-04-03T11:20:17;6.80;94.80
3756;DHT22;1893;52.526;13.360;2023-04-03T11:23:16;6.50;95.20
3756;DHT22;1893;52.526;13.360;2023-04-03T11:25:50;6.50;96.60
3756;DHT22;1893;52.526;13.360;2023-04-03T11:28:17;6.60;96.70
3756;DHT22;1893;52.526;13.360;2023-04-03T11:30:59;6.30;96.90
3756;DHT22;1893;52.526;13.360;2023-04-03T11:36:32;6.00;97.60
3756;DHT22;1893;52.526;13.360;2023-04-03T11:39:10;6.00;98.40
3756;DHT22;1893;52.526;13.360;2023-04-03T11:41:39;6.10;97.80
3756;DHT22;1893;52.526;13.360;2023-04-03T11:46:58;6.30;97.80
3756;DHT22;1893;52.526;13.360;2023-04-03T11:49:57;6.50;97.40
3756;DHT22;1893;52.526;13.360;2023-04-03T12:05:55;6.30;97.00
3756;DHT22;1893;52.526;13.360;2023-04-03T12:38:16;5.60;99.90
3756;DHT22;1893;52.526;13.360;2023-04-03T12:48:49;6.10;99.90
3756;DHT22;1893;52.526;13.360;2023-04-03T12:51:34;6.50;99.00
3756;DHT22;1893;52.526;13.360;2023-04-03T12:54:13;6.80;97.40
3756;DHT22;1893;52.526;13.360;2023-04-03T12:56:40;6.80;97.80
3756;DHT22;1893;52.526;13.360;2023-04-03T12:59:23;6.50;97.00
3756;DHT22;1893;52.526;13.360;2023-04-03T13:01:54;6.10;97.10
3756;DHT22;1893;52.526;13.360;2023-04-03T13:04:20;5.90;97.40
3756;DHT22;1893;52.526;13.360;2023-04-03T13:06:46;5.90;98.10
3756;DHT22;1893;52.526;13.360;2023-04-03T13:09:23;5.90;97.30
3756;DHT22;1893;52.526;13.360;2023-04-03T13:11:57;5.80;98.90
3756;DHT22;1893;52.526;13.360;2023-04-03T13:14:25;5.60;98.50
3756;DHT22;1893;52.526;13.360;2023-04-03T13:17:16;5.70;98.90
3756;DHT22;1893;52.526;13.360;2023-04-03T13:19:44;5.70;98.90
3756;DHT22;1893;52.526;13.360;2023-04-03T13:22:31;5.70;99.30
3756;DHT22;1893;52.526;13.360;2023-04-03T13:25:00;5.50;99.70
3756;DHT22;1893;52.526;13.360;2023-04-03T13:27:29;5.50;99.90
3756;DHT22;1893;52.526;13.360;2023-04-03T13:29:58;5.40;99.90
3756;DHT22;1893;52.526;13.360;2023-04-03T13:32:27;5.50;99.90
3756;DHT22;1893;52.526;13.360;2023-04-03T13:34:54;5.50;99.90
3756;DHT22;1893;52.526;13.360;2023-04-03T13:37:31;5.60;99.90
3756;DHT22;1893;52.526;13.360;2023-04-03T13:40:08;5.70;99.90
3756;DHT22;1893;52.526;13.360;2023-04-03T13:42:38;5.70;99.90
3756;DHT22;1893;52.526;13.360;2023-04-03T13:48:20;5.80;99.90
3756;DHT22;1893;52.526;13.360;2023-04-03T13:51:00;5.80;99.90
3756;DHT22;1893;52.526;13.360;2023-04-03T13:53:27;5.90;99.90
3756;DHT22;1893;52.526;13.360;2023-04-03T13:58:30;5.50;99.90
3756;DHT22;1893;52.526;13.360;2023-04-03T14:01:00;5.50;99.90
3756;DHT22;1893;52.526;13.360;2023-04-03T14:05:52;5.50;99.90
3756;DHT22;1893;52.526;13.360;2023-04-03T14:08:18;5.60;99.90
3756;DHT22;1893;52.526;13.360;2023-04-03T14:10:44;5.60;99.90
3756;DHT22;1893;52.526;13.360;2023-04-03T14:13:15;5.70;99.90
3756;DHT22;1893;52.526;13.360;2023-04-03T14:15:43;5.80;99.90
3756;DHT22;1893;52.526;13.360;2023-04-03T14:18:12;5.90;99.90
3756;DHT22;1893;52.526;13.360;2023-04-03T14:20:38;5.90;99.90
3756;DHT22;1893;52.526;13.360;2023-04-03T14:23:03;5.90;99.90
3756;DHT22;1893;52.526;13.360;2023-04-03T14:25:29;5.90;99.90
3756;DHT22;1893;52.526;13.360;2023-04-03T14:27:55;6.00;99.90
3756;DHT22;1893;52.526;13.360;2023-04-03T14:30:29;6.20;99.90
3756;DHT22;1893;52.526;13.360;2023-04-03T14:32:55;6.20;99.90
3756;DHT22;1893;52.526;13.360;2023-04-03T14:35:22;5.90;99.90
3756;DHT22;1893;52.526;13.360;2023-04-03T14:37:49;5.90;99.90
3756;DHT22;1893;52.526;13.360;2023-04-03T14:40:20;6.20;99.90
3756;DHT22;1893;52.526;13.360;2023-04-03T14:42:46;6.70;99.90
3756;DHT22;1893;52.526;13.360;2023-04-03T14:45:14;7.00;99.90
3756;DHT22;1893;52.526;13.360;2023-04-03T14:47:51;6.90;99.90
3756;DHT22;1893;52.526;13.360;2023-04-03T14:50:26;6.80;99.90
3756;DHT22;1893;52.526;13.360;2023-04-03T14:52:55;6.50;99.90
3756;DHT22;1893;52.526;13.360;2023-04-03T14:55:24;6.20;99.90
3756;DHT22;1893;52.526;13.360;2023-04-03T14:57:50;6.00;99.90
3756;DHT22;1893;52.526;13.360;2023-04-03T15:00:21;5.60;99.90
3756;DHT22;1893;52.526;13.360;2023-04-03T15:02:47;5.60;99.90
3756;DHT22;1893;52.526;13.360;2023-04-03T15:05:14;5.30;99.90
3756;DHT22;1893;52.526;13.360;2023-04-03T15:07:41;5.30;99.90
3756;DHT22;1893;52.526;13.360;2023-04-03T15:10:28;5.20;99.90
3756;DHT22;1893;52.526;13.360;2023-04-03T15:12:55;5.30;99.90
3756;DHT22;1893;52.526;13.360;2023-04-03T15:15:22;5.20;99.90
3756;DHT22;1893;52.526;13.360;2023-04-03T15:17:51;5.00;99.90
3756;DHT22;1893;52.526;13.360;2023-04-03T15:20:22;5.00;99.90
3756;DHT22;1893;52.526;13.360;2023-04-03T15:22:48;5.00;99.90
3756;DHT22;1893;52.526;13.360;2023-04-03T15:25:14;4.90;99.90
3756;DHT22;1893;52.526;13.360;2023-04-03T15:27:39;5.00;99.90
3756;DHT22;1893;52.526;13.360;2023-04-03T15:30:14;4.90;99.90
3756;DHT22;1893;52.526;13.360;2023-04-03T15:32:40;4.90;99.90
3756;DHT22;1893;52.526;13.360;2023-04-03T15:35:06;4.90;99.90
3756;DHT22;1893;52.526;13.360;2023-04-03T15:37:31;4.90;99.90
3756;DHT22;1893;52.526;13.360;2023-04-03T15:39:57;5.00;99.90
3756;DHT22;1893;52.526;13.360;2023-04-03T15:42:22;4.90;99.90
3756;DHT22;1893;52.526;13.360;2023-04-03T15:44:48;4.90;99.90
3756;DHT22;1893;52.526;13.360;2023-04-03T15:47:14;5.00;99.90
3756;DHT22;1893;52.526;13.360;2023-04-03T15:49:39;5.00;99.90
3756;DHT22;1893;52.526;13.360;2023-04-03T15:52:05;5.00;99.90
3756;DHT22;1893;52.526;13.360;2023-04-03T15:54:31;5.00;99.90
3756;DHT22;1893;52.526;13.360;2023-04-03T15:56:57;5.00;99.90
3756;DHT22;1893;52.526;13.360;2023-04-03T15:59:23;4.90;99.90
3756;DHT22;1893;52.526;13.360;2023-04-03T16:01:49;5.00;99.90
3756;DHT22;1893;52.526;13.360;2023-04-03T16:04:16;5.00;99.90
3756;DHT22;1893;52.526;13.360;2023-04-03T16:06:42;4.90;99.90
3756;DHT22;1893;52.526;13.360;2023-04-03T16:09:08;4.70;99.90
3756;DHT22;1893;52.526;13.360;2023-04-03T16:11:34;4.90;99.90
3756;DHT22;1893;52.526;13.360;2023-04-03T16:14:01;4.60;99.90
3756;DHT22;1893;52.526;13.360;2023-04-03T16:16:27;4.50;99.90
3756;DHT22;1893;52.526;13.360;2023-04-03T16:18:54;4.50;99.90
3756;DHT22;1893;52.526;13.360;2023-04-03T16:21:21;4.40;99.90
3756;DHT22;1893;52.526;13.360;2023-04-03T16:23:46;4.70;99.90
3756;DHT22;1893;52.526;13.360;2023-04-03T16:26:12;4.70;99.90
3756;DHT22;1893;52.526;13.360;2023-04-03T16:28:38;4.90;99.90
3756;DHT22;1893;52.526;13.360;2023-04-03T16:31:05;5.00;99.90
3756;DHT22;1893;52.526;13.360;2023-04-03T16:33:31;5.10;99.90
3756;DHT22;1893;52.526;13.360;2023-04-03T16:35:56;5.20;99.90
3756;DHT22;1893;52.526;13.360;2023-04-03T16:38:22;5.20;99.90
3756;DHT22;1893;52.526;13.360;2023-04-03T16:40:48;5.10;99.90
3756;DHT22;1893;52.526;13.360;2023-04-03T16:43:15;5.00;99.90
3756;DHT22;1893;52.526;13.360;2023-04-03T16:45:41;4.80;99.90
3756;DHT22;1893;52.526;13.360;2023-04-03T16:48:07;4.90;99.90
3756;DHT22;1893;52.526;13.360;2023-04-03T16:50:32;4.80;99.90
3756;DHT22;1893;52.526;13.360;2023-04-03T16:52:58;4.80;99.90
3756;DHT22;1893;52.526;13.360;2023-04-03T16:55:24;4.80;99.90
3756;DHT22;1893;52.526;13.360;2023-04-03T16:57:50;4.80;99.90
3756;DHT22;1893;52.526;13.360;2023-04-03T17:00:16;4.70;99.90
3756;DHT22;1893;52.526;13.360;2023-04-03T17:02:42;4.70;99.90
3756;DHT22;1893;52.526;13.360;2023-04-03T17:05:08;4.60;99.90
3756;DHT22;1893;52.526;13.360;2023-04-03T17:07:33;4.60;99.90
3756;DHT22;1893;52.526;13.360;2023-04-03T17:09:59;4.50;99.90
3756;DHT22;1893;52.526;13.360;2023-04-03T17:12:25;4.40;99.90
3756;DHT22;1893;52.526;13.360;2023-04-03T17:14:51;4.40;99.90
3756;DHT22;1893;52.526;13.360;2023-04-03T17:17:22;4.30;99.90
3756;DHT22;1893;52.526;13.360;2023-04-03T17:19:49;4.30;99.90
3756;DHT22;1893;52.526;13.360;2023-04-03T17:22:15;4.40;99.90
3756;DHT22;1893;52.526;13.360;2023-04-03T17:24:42;4.30;99.90
3756;DHT22;1893;52.526;13.360;2023-04-03T17:27:08;4.20;99.90
3756;DHT22;1893;52.526;13.360;2023-04-03T17:29:34;4.30;99.90
3756;DHT22;1893;52.526;13.360;2023-04-03T17:32:00;4.30;99.90
3756;DHT22;1893;52.526;13.360;2023-04-03T17:34:26;4.20;99.90
3756;DHT22;1893;52.526;13.360;2023-04-03T17:36:51;4.20;99.90
3756;DHT22;1893;52.526;13.360;2023-04-03T17:39:17;4.30;99.90
3756;DHT22;1893;52.526;13.360;2023-04-03T17:41:43;4.20;99.90
3756;DHT22;1893;52.526;13.360;2023-04-03T17:44:10;4.20;99.90
3756;DHT22;1893;52.526;13.360;2023-04-03T17:46:36;4.30;99.90
3756;DHT22;1893;52.526;13.360;2023-04-03T17:49:02;4.20;99.90
3756;DHT22;1893;52.526;13.360;2023-04-03T17:51:28;4.20;99.90
3756;DHT22;1893;52.526;13.360;2023-04-03T17:53:54;4.20;99.90
3756;DHT22;1893;52.526;13.360;2023-04-03T17:56:23;4.10;99.90
3756;DHT22;1893;52.526;13.360;2023-04-03T17:58:49;4.10;99.90
3756;DHT22;1893;52.526;13.360;2023-04-03T18:01:18;4.10;99.90
3756;DHT22;1893;52.526;13.360;2023-04-03T18:03:45;4.10;99.90
3756;DHT22;1893;52.526;13.360;2023-04-03T18:06:14;4.10;99.90
3756;DHT22;1893;52.526;13.360;2023-04-03T18:08:46;4.10;99.90
3756;DHT22;1893;52.526;13.360;2023-04-03T18:11:13;4.00;99.90
3756;DHT22;1893;52.526;13.360;2023-04-03T18:13:39;4.20;99.90
3756;DHT22;1893;52.526;13.360;2023-04-03T18:16:09;4.00;99.90